• Join FlightAware (Why Join?)
  • Login
  • US Flag 
03:32AM EDT


 

Airport Tracker/Info


-or-


 

Live Flight TrackerFlight Track Log ✈ AFL150 ✈ 12-Apr-2014 ✈ UUEE / SVO - MUHA / HAV

Flight Track Log - Related Links

Times and Time Zones

All times are in EDT time to prevent confusion due to time zone crossing. See the AFL150 flight status page for this flight to view local times or setup timezone preferences in your user account.

Time Position Orientation Groundspeed Altitude Reporting Facility
EDT Latitude Longitude Course Direction KTS MPH feet Rate Location/Type
06:56AM 56.2409 36.6991 307° West  Level Estimated
06:57AM 56.3096 36.5298 306° West  Level Estimated
06:58AM 56.3781 36.3598 306° West  Level Estimated
06:59AM 56.4464 36.1892 306° West  Level Estimated
07:00AM 56.5144 36.0179 306° West  Level Estimated
07:01AM 56.5822 35.8461 306° West  Level Estimated
07:02AM 56.6498 35.6736 306° West  Level Estimated
07:03AM 56.7171 35.5006 305° West  Level Estimated
07:04AM 56.7842 35.3269 305° West  Level Estimated
07:05AM 56.8510 35.1526 305° West  Level Estimated
07:06AM 56.9176 34.9776 305° West  Level Estimated
07:07AM 56.9839 34.8021 305° West  Level Estimated
07:08AM 57.0500 34.6259 305° West  Level Estimated
07:09AM 57.1159 34.4491 304° West  Level Estimated
07:10AM 57.1815 34.2716 304° West  Level Estimated
07:11AM 57.2468 34.0936 304° West  Level Estimated
07:12AM 57.3119 33.9149 304° West  Level Estimated
07:13AM 57.3768 33.7355 304° West  Level Estimated
07:14AM 57.4414 33.5556 304° West  Level Estimated
07:15AM 57.5057 33.3750 304° West  Level Estimated
07:16AM 57.5698 33.1937 303° West  Level Estimated
07:17AM 57.6336 33.0118 303° West  Level Estimated
07:18AM 57.6971 32.8293 303° West  Level Estimated
07:19AM 57.7604 32.6462 303° West  Level Estimated
07:20AM 57.8234 32.4624 303° West  Level Estimated
07:21AM 57.8862 32.2780 303° West  Level Estimated
07:22AM 57.9487 32.0929 303° West  Level Estimated
07:23AM 58.0109 31.9071 302° West  Level Estimated
07:24AM 58.0728 31.7208 302° West  Level Estimated
07:25AM 58.1345 31.5337 302° West  Level Estimated
07:26AM 58.1959 31.3461 302° West  Level Estimated
07:27AM 58.2570 31.1578 302° West  Level Estimated
07:28AM 58.3179 30.9688 302° West  Level Estimated
07:29AM 58.3784 30.7792 301° West  Level Estimated
07:30AM 58.4387 30.5889 301° West  Level Estimated
07:31AM 58.4987 30.3980 301° West  Level Estimated
07:32AM 58.5584 30.2064 301° West  Level Estimated
07:33AM 58.6179 30.0142 301° West  Level Estimated
07:34AM 58.6770 29.8213 301° West  Level Estimated
07:35AM 58.7359 29.6278 300° West  Level Estimated
07:36AM 58.7944 29.4336 300° West  Level Estimated
07:37AM 58.8527 29.2388 300° West  Level Estimated
07:38AM 58.9107 29.0433 300° West  Level Estimated
07:39AM 58.9684 28.8472 300° West  Level Estimated
07:40AM 59.0257 28.6504 300° West  Level Estimated
07:41AM 59.0828 28.4529 299° West  Level Estimated
07:42AM 59.1396 28.2548 299° West  Level Estimated
07:43AM 59.1961 28.0560 299° West  Level Estimated
07:44AM 59.2523 27.8566 299° West  Level Estimated
07:45AM 59.3081 27.6565 299° West  Level Estimated
07:46AM 59.3637 27.4557 299° West  Level Estimated
07:47AM 59.4189 27.2543 298° West  Level Estimated
07:48AM 59.4739 27.0523 298° West  Level Estimated
07:49AM 59.5285 26.8496 298° West  Level Estimated
07:50AM 59.5828 26.6462 298° West  Level Estimated
07:51AM 59.6368 26.4422 298° West  Level Estimated
07:52AM 59.6905 26.2375 298° West  Level Estimated
07:53AM 59.7439 26.0322 297° West  Level Estimated
07:54AM 59.7969 25.8262 297° West  Level Estimated
07:54AM 59.9240 26.7125 280° West 443 510 36,000  Level FlightAware ADS-B (EFHN)
07:55AM 59.9696 26.3085 290° West 440 506 36,000  Level FlightAware ADS-B (EFHN)
07:56AM 60.0173 26.3548 298° West  Level Estimated
07:56AM 60.0183 26.1108 301° West 439 505 36,000  Level FlightAware ADS-B (EFHN)
07:57AM 60.0629 25.9682 302° West 438 504 36,000  Level FlightAware ADS-B (EFHN)
07:58AM 60.1135 25.8024 301° West 431 496 36,000  Level FlightAware ADS-B (EFHN)
07:58AM 60.1461 25.6941 301° West 431 496 36,000  Level FlightAware ADS-B (EFHN)
07:59AM 60.1991 25.5171 301° West 430 495 36,000  Level FlightAware ADS-B (EFHN)
08:00AM 60.2296 25.4144 301° West 429 494 36,000  Level FlightAware ADS-B (EFHN)
08:00AM 60.2602 25.3110 301° West 428 493 36,000  Level FlightAware ADS-B (EFHN)
08:01AM 60.2999 25.1762 301° West 427 491 36,000  Level FlightAware ADS-B (EFHN)
08:01AM 60.3250 25.0906 301° West 428 493 36,000  Level FlightAware ADS-B (EFHN)
08:02AM 60.3659 24.9500 300° West 429 494 36,000  Level FlightAware ADS-B (EFHN)
08:03AM 60.4009 24.8289 300° West 428 493 36,000  Level FlightAware ADS-B (EFHN)
08:03AM 60.4393 24.6958 300° West 428 493 36,000  Level FlightAware ADS-B (EFHN)
08:04AM 60.4724 24.5802 300° West 426 490 36,000  Level FlightAware ADS-B (EFHN)
08:05AM 60.5635 24.2588 300° West 424 488 36,000  Level FlightAware ADS-B (EFHN)
08:06AM 60.5946 24.1483 300° West 424 488 36,000  Level FlightAware ADS-B (EFHN)
08:06AM 60.6239 24.0436 300° West 423 487 36,000  Level FlightAware ADS-B (EFHN)
08:07AM 60.6627 23.9044 299° West 424 488 36,000  Level FlightAware ADS-B (EFHN)
08:08AM 60.6875 23.8147 299° West 425 489 36,000  Level FlightAware ADS-B (EFHN)
08:08AM 60.7305 23.6587 299° West 426 490 36,000  Level FlightAware ADS-B (EFHN)
08:09AM 60.7579 23.5586 299° West 427 491 36,000  Level FlightAware ADS-B (EFHN)
08:09AM 60.7987 23.4091 299° West 428 493 36,000  Level FlightAware ADS-B (EFHN)
08:12AM 60.9838 22.8977 315° West 419 482 36,000  Level FlightAware ADS-B (EFHN)
08:13AM 61.0457 22.7721 316° Northwest 419 482 36,000  Level FlightAware ADS-B (EFHN)
08:14AM 61.1066 22.6484 315° West 421 484 36,000  Level FlightAware ADS-B (EFHN)
08:15AM 61.1834 22.4903 315° West 423 487 36,000  Level FlightAware ADS-B (EFHN)
08:20AM 61.6095 21.5901 314° West 401 461 36,000  Level FlightAware ADS-B (ESKB)
08:22AM 61.6860 21.2099 293° West  Level Estimated
08:23AM 61.7309 20.9832 293° West  Level Estimated
08:24AM 61.7755 20.7558 293° West  Level Estimated
08:25AM 61.8197 20.5277 292° West  Level Estimated
08:26AM 61.8635 20.2990 292° West  Level Estimated
08:27AM 61.9070 20.0697 292° West  Level Estimated
08:28AM 61.9500 19.8397 292° West  Level Estimated
08:29AM 61.9927 19.6090 292° West  Level Estimated
08:30AM 62.0350 19.3777 291° West  Level Estimated
08:31AM 62.0769 19.1458 291° West  Level Estimated
08:32AM 62.1184 18.9132 291° West  Level Estimated
08:33AM 62.1595 18.6800 291° West  Level Estimated
08:34AM 62.2002 18.4461 291° West  Level Estimated
08:35AM 62.2405 18.2117 290° West  Level Estimated
08:36AM 62.2805 17.9766 290° West  Level Estimated
08:37AM 62.3200 17.7409 290° West  Level Estimated
08:38AM 62.3591 17.5045 290° West  Level Estimated
08:39AM 62.3979 17.2676 290° West  Level Estimated
08:40AM 62.4362 17.0300 289° West  Level Estimated
08:41AM 62.4741 16.7919 289° West  Level Estimated
08:42AM 62.5116 16.5531 289° West  Level Estimated
08:43AM 62.5488 16.3137 289° West  Level Estimated
08:44AM 62.5854 16.0738 288° West  Level Estimated
08:45AM 62.6217 15.8332 288° West  Level Estimated
08:46AM 62.6576 15.5921 288° West  Level Estimated
08:47AM 62.6931 15.3504 288° West  Level Estimated
08:48AM 62.7281 15.1081 288° West  Level Estimated
08:49AM 62.7627 14.8652 287° West  Level Estimated
08:50AM 62.7969 14.6218 287° West  Level Estimated
08:51AM 62.8307 14.3778 287° West  Level Estimated
08:52AM 62.8641 14.1332 287° West  Level Estimated
08:53AM 62.8970 13.8881 287° West  Level Estimated
08:54AM 62.9295 13.6425 286° West  Level Estimated
08:55AM 62.9616 13.3963 286° West  Level Estimated
08:56AM 62.9932 13.1495 286° West  Level Estimated
08:57AM 63.0245 12.9023 286° West  Level Estimated
08:58AM 63.0552 12.6545 285° West  Level Estimated
08:59AM 63.0856 12.4062 285° West  Level Estimated
09:00AM 63.1155 12.1573 285° West  Level Estimated
09:01AM 63.1450 11.9080 285° West  Level Estimated
09:02AM 63.1740 11.6582 285° West  Level Estimated
09:03AM 63.2026 11.4078 284° West  Level Estimated
09:04AM 63.2308 11.1570 284° West  Level Estimated
09:05AM 63.2585 10.9057 284° West  Level Estimated
09:06AM 63.2858 10.6539 284° West  Level Estimated
09:07AM 63.3126 10.4016 283° West  Level Estimated
09:08AM 63.3390 10.1489 283° West  Level Estimated
09:09AM 63.3650 9.8957 283° West  Level Estimated
09:10AM 63.3904 9.6420 283° West  Level Estimated
09:11AM 63.4155 9.3879 283° West  Level Estimated
09:12AM 63.4401 9.1334 282° West  Level Estimated
09:13AM 63.4642 8.8784 282° West  Level Estimated
09:14AM 63.4879 8.6230 282° West  Level Estimated
09:15AM 63.5111 8.3672 282° West  Level Estimated
09:16AM 63.5339 8.1110 281° West  Level Estimated
09:17AM 63.5562 7.8544 281° West  Level Estimated
09:18AM 63.5780 7.5974 281° West  Level Estimated
09:19AM 63.5994 7.3399 281° West  Level Estimated
09:20AM 63.6203 7.0821 280° West  Level Estimated
09:21AM 63.6408 6.8239 280° West  Level Estimated
09:22AM 63.6608 6.5654 280° West  Level Estimated
09:23AM 63.6804 6.3065 280° West  Level Estimated
09:24AM 63.6994 6.0472 280° West  Level Estimated
09:25AM 63.7180 5.7876 279° West  Level Estimated
09:26AM 63.7362 5.5277 279° West  Level Estimated
09:27AM 63.7538 5.2674 279° West  Level Estimated
09:28AM 63.7710 5.0068 279° West  Level Estimated
09:29AM 63.7878 4.7459 278° West  Level Estimated
09:30AM 63.8040 4.4847 278° West  Level Estimated
09:31AM 63.8198 4.2232 278° West  Level Estimated
09:32AM 63.8351 3.9614 278° West  Level Estimated
09:33AM 63.8500 3.6993 277° West  Level Estimated
09:34AM 63.8643 3.4370 277° West  Level Estimated
09:35AM 63.8782 3.1743 277° West  Level Estimated
09:36AM 63.8916 2.9115 277° West  Level Estimated
09:37AM 63.9046 2.6484 276° West  Level Estimated
09:38AM 63.9170 2.3850 276° West  Level Estimated
09:39AM 63.9290 2.1214 276° West  Level Estimated
09:40AM 63.9405 1.8576 276° West  Level Estimated
09:41AM 63.9515 1.5936 276° West  Level Estimated
09:42AM 63.9621 1.3294 275° West  Level Estimated
09:43AM 63.9721 1.0649 275° West  Level Estimated
09:44AM 63.9817 0.8004 275° West  Level Estimated
09:45AM 63.9908 0.5356 275° West  Level Estimated
09:46AM 63.9994 0.2706 274° West  Level Estimated
09:47AM 64.0075 0.0055 274° West  Level Estimated
09:48AM 64.0152 -0.2597 274° West  Level Estimated
09:49AM 64.0223 -0.5251 274° West  Level Estimated
09:50AM 64.0290 -0.7907 273° West  Level Estimated
09:51AM 64.0352 -1.0563 273° West  Level Estimated
09:52AM 64.0409 -1.3221 273° West  Level Estimated
09:53AM 64.0461 -1.5879 273° West  Level Estimated
09:54AM 64.0509 -1.8539 272° West  Level Estimated
09:55AM 64.0551 -2.1199 272° West  Level Estimated
09:56AM 64.0589 -2.3861 272° West  Level Estimated
09:57AM 64.0622 -2.6523 272° West  Level Estimated
09:58AM 64.0650 -2.9185 271° West  Level Estimated
09:59AM 64.0673 -3.1848 271° West  Level Estimated
10:00AM 64.0691 -3.4511 271° West  Level Estimated
10:01AM 64.0704 -3.7175 271° West  Level Estimated
10:02AM 64.0713 -3.9839 271° West  Level Estimated
10:03AM 64.0716 -4.2503 270° West  Level Estimated
10:04AM 64.0715 -4.5167 270° West  Level Estimated
10:05AM 64.0709 -4.7831 270° West  Level Estimated
10:06AM 64.0698 -5.0495 270° West  Level Estimated
10:07AM 64.0682 -5.3158 269° West  Level Estimated
10:08AM 64.0661 -5.5821 269° West  Level Estimated
10:09AM 64.0635 -5.8484 269° West  Level Estimated
10:10AM 64.0605 -6.1146 269° West  Level Estimated
10:11AM 64.0570 -6.3808 268° West  Level Estimated
10:12AM 64.0529 -6.6469 268° West  Level Estimated
10:13AM 64.0484 -6.9129 268° West  Level Estimated
10:14AM 64.0434 -7.1788 268° West  Level Estimated
10:15AM 64.0379 -7.4446 267° West  Level Estimated
10:16AM 64.0320 -7.7103 267° West  Level Estimated
10:17AM 64.0255 -7.9759 267° West  Level Estimated
10:18AM 64.0186 -8.2414 267° West  Level Estimated
10:19AM 64.0112 -8.5067 266° West  Level Estimated
10:20AM 64.0033 -8.7718 266° West  Level Estimated
10:21AM 63.9949 -9.0369 266° West  Level Estimated
10:22AM 63.9860 -9.3017 266° West  Level Estimated
10:23AM 63.9767 -9.5664 266° West  Level Estimated
10:24AM 63.9668 -9.8309 265° West  Level Estimated
10:25AM 63.9565 -10.0952 265° West  Level Estimated
10:26AM 63.9457 -10.3593 265° West  Level Estimated
10:27AM 63.9344 -10.6233 265° West  Level Estimated
10:28AM 63.9227 -10.8869 264° West  Level Estimated
10:29AM 63.9104 -11.1504 264° West  Level Estimated
10:30AM 63.8977 -11.4136 264° West  Level Estimated
10:31AM 63.8845 -11.6766 264° West  Level Estimated
10:32AM 63.8709 -11.9394 263° West  Level Estimated
10:33AM 63.8568 -12.2018 263° West  Level Estimated
10:34AM 63.8421 -12.4640 263° West  Level Estimated
10:35AM 63.8270 -12.7260 263° West  Level Estimated
10:36AM 63.8115 -12.9876 262° West  Level Estimated
10:37AM 63.7954 -13.2490 262° West  Level Estimated
10:38AM 63.7789 -13.5100 262° West  Level Estimated
10:39AM 63.7620 -13.7708 262° West  Level Estimated
10:40AM 63.7445 -14.0312 262° West  Level Estimated
10:41AM 63.7266 -14.2913 261° West  Level Estimated
10:42AM 63.7082 -14.5511 261° West  Level Estimated
10:43AM 63.6893 -14.8105 261° West  Level Estimated
10:44AM 63.6700 -15.0695 261° West  Level Estimated
10:45AM 63.6502 -15.3283 260° West  Level Estimated
10:46AM 63.6300 -15.5866 260° West  Level Estimated
10:47AM 63.6093 -15.8446 260° West  Level Estimated
10:48AM 63.5881 -16.1022 260° West  Level Estimated
10:49AM 63.5665 -16.3594 259° West  Level Estimated
10:50AM 63.5444 -16.6162 259° West  Level Estimated
10:51AM 63.5218 -16.8726 259° West  Level Estimated
10:52AM 63.4988 -17.1287 259° West  Level Estimated
10:53AM 63.4753 -17.3842 258° West  Level Estimated
10:54AM 63.4514 -17.6394 258° West  Level Estimated
10:55AM 63.4271 -17.8941 258° West  Level Estimated
10:56AM 63.4022 -18.1485 258° West  Level Estimated
10:57AM 63.3769 -18.4023 258° West  Level Estimated
10:58AM 63.3512 -18.6557 257° West  Level Estimated
10:59AM 63.3251 -18.9087 257° West  Level Estimated
11:00AM 63.2984 -19.1611 257° West  Level Estimated
11:01AM 63.2714 -19.4132 257° West  Level Estimated
11:02AM 63.2439 -19.6647 256° West  Level Estimated
11:03AM 63.2159 -19.9158 256° West  Level Estimated
11:04AM 63.1875 -20.1663 256° West  Level Estimated
11:05AM 63.1586 -20.4164 256° West  Level Estimated
11:06AM 63.1294 -20.6660 256° West  Level Estimated
11:07AM 63.0997 -20.9150 255° West  Level Estimated
11:08AM 63.0695 -21.1636 255° West  Level Estimated
11:09AM 63.0389 -21.4116 255° West  Level Estimated
11:10AM 63.0079 -21.6591 255° West  Level Estimated
11:11AM 62.9765 -21.9061 254° West  Level Estimated
11:12AM 62.9446 -22.1526 254° West  Level Estimated
11:13AM 62.9123 -22.3985 254° West  Level Estimated
11:14AM 62.8795 -22.6439 254° West  Level Estimated
11:15AM 62.8464 -22.8887 254° West  Level Estimated
11:16AM 62.8128 -23.1329 253° West  Level Estimated
11:17AM 62.7788 -23.3766 253° West  Level Estimated
11:18AM 62.7444 -23.6197 253° West  Level Estimated
11:19AM 62.7095 -23.8623 253° West  Level Estimated
11:20AM 62.6743 -24.1043 252° West  Level Estimated
11:21AM 62.6386 -24.3457 252° West  Level Estimated
11:22AM 62.6025 -24.5865 252° West  Level Estimated
11:23AM 62.5660 -24.8268 252° West  Level Estimated
11:24AM 62.5291 -25.0664 252° West  Level Estimated
11:25AM 62.4917 -25.3055 251° West  Level Estimated
11:26AM 62.4540 -25.5439 251° West  Level Estimated
11:27AM 62.4159 -25.7817 251° West  Level Estimated
11:28AM 62.3773 -26.0190 251° West  Level Estimated
11:29AM 62.3384 -26.2556 251° West  Level Estimated
11:30AM 62.2990 -26.4916 250° West  Level Estimated
11:31AM 62.2593 -26.7270 250° West  Level Estimated
11:32AM 62.2191 -26.9618 250° West  Level Estimated
11:33AM 62.1786 -27.1959 250° West  Level Estimated
11:34AM 62.1377 -27.4294 250° West  Level Estimated
11:35AM 62.0963 -27.6623 249° West  Level Estimated
11:36AM 62.0546 -27.8945 249° West  Level Estimated
11:37AM 62.0125 -28.1261 249° West  Level Estimated
11:38AM 61.9700 -28.3571 249° West  Level Estimated
11:39AM 61.9272 -28.5874 249° West  Level Estimated
11:40AM 61.8839 -28.8170 248° West  Level Estimated
11:41AM 61.8403 -29.0460 248° West  Level Estimated
11:42AM 61.7962 -29.2744 248° West  Level Estimated
11:43AM 61.7518 -29.5021 248° West  Level Estimated
11:44AM 61.7071 -29.7291 247° West  Level Estimated
11:45AM 61.6619 -29.9555 247° West  Level Estimated
11:46AM 61.6164 -30.1812 247° West  Level Estimated
11:47AM 61.5705 -30.4063 247° West  Level Estimated
11:48AM 61.5242 -30.6307 247° West  Level Estimated
11:49AM 61.4776 -30.8544 247° West  Level Estimated
11:50AM 61.4306 -31.0774 246° West  Level Estimated
11:51AM 61.3833 -31.2998 246° West  Level Estimated
11:52AM 61.3355 -31.5215 246° West  Level Estimated
11:53AM 61.2875 -31.7425 246° West  Level Estimated
11:54AM 61.2390 -31.9629 246° West  Level Estimated
11:55AM 61.1902 -32.1825 245° Southwest  Level Estimated
11:56AM 61.1411 -32.4015 245° Southwest  Level Estimated
11:57AM 61.0916 -32.6198 245° Southwest  Level Estimated
11:58AM 61.0417 -32.8374 245° Southwest  Level Estimated
11:59AM 60.9915 -33.0543 245° Southwest  Level Estimated
12:00PM 60.9410 -33.2705 244° Southwest  Level Estimated
12:01PM 60.8901 -33.4861 244° Southwest  Level Estimated
12:02PM 60.8388 -33.7010 244° Southwest  Level Estimated
12:03PM 60.7873 -33.9151 244° Southwest  Level Estimated
12:04PM 60.7354 -34.1286 244° Southwest  Level Estimated
12:05PM 60.6831 -34.3414 243° Southwest  Level Estimated
12:06PM 60.6305 -34.5535 243° Southwest  Level Estimated
12:07PM 60.5776 -34.7649 243° Southwest  Level Estimated
12:08PM 60.5243 -34.9756 243° Southwest  Level Estimated
12:09PM 60.4707 -35.1856 243° Southwest  Level Estimated
12:10PM 60.4168 -35.3949 243° Southwest  Level Estimated
12:11PM 60.3626 -35.6035 242° Southwest  Level Estimated
12:12PM 60.3080 -35.8115 242° Southwest  Level Estimated
12:13PM 60.2531 -36.0187 242° Southwest  Level Estimated
12:14PM 60.1979 -36.2253 242° Southwest  Level Estimated
12:15PM 60.1423 -36.4311 242° Southwest  Level Estimated
12:16PM 60.0865 -36.6362 241° Southwest  Level Estimated
12:17PM 60.0303 -36.8407 241° Southwest  Level Estimated
12:18PM 59.9738 -37.0444 241° Southwest  Level Estimated
12:19PM 59.9170 -37.2475 241° Southwest  Level Estimated
12:20PM 59.8599 -37.4499 241° Southwest  Level Estimated
12:21PM 59.8025 -37.6515 241° Southwest  Level Estimated
12:22PM 59.7448 -37.8525 240° Southwest  Level Estimated
12:23PM 59.6867 -38.0528 240° Southwest  Level Estimated
12:24PM 59.6284 -38.2524 240° Southwest  Level Estimated
12:25PM 59.5698 -38.4513 240° Southwest  Level Estimated
12:26PM 59.5108 -38.6495 240° Southwest  Level Estimated
12:27PM 59.4516 -38.8470 240° Southwest  Level Estimated
12:28PM 59.3920 -39.0438 239° Southwest  Level Estimated
12:29PM 59.3322 -39.2399 239° Southwest  Level Estimated
12:30PM 59.2721 -39.4353 239° Southwest  Level Estimated
12:31PM 59.2117 -39.6301 239° Southwest  Level Estimated
12:32PM 59.1510 -39.8241 239° Southwest  Level Estimated
12:33PM 59.0900 -40.0174 239° Southwest  Level Estimated
12:34PM 59.0287 -40.2101 238° Southwest  Level Estimated
12:35PM 58.9671 -40.4021 238° Southwest  Level Estimated
12:36PM 58.9053 -40.5934 238° Southwest  Level Estimated
12:37PM 58.8431 -40.7840 238° Southwest  Level Estimated
12:38PM 58.7807 -40.9739 238° Southwest  Level Estimated
12:39PM 58.7180 -41.1632 238° Southwest  Level Estimated
12:40PM 58.6551 -41.3517 237° Southwest  Level Estimated
12:41PM 58.5918 -41.5396 237° Southwest  Level Estimated
12:42PM 58.5283 -41.7268 237° Southwest  Level Estimated
12:43PM 58.4645 -41.9134 237° Southwest  Level Estimated
12:44PM 58.4005 -42.0992 237° Southwest  Level Estimated
12:45PM 58.3362 -42.2844 237° Southwest  Level Estimated
12:46PM 58.2716 -42.4689 236° Southwest  Level Estimated
12:47PM 58.2067 -42.6527 236° Southwest  Level Estimated
12:48PM 58.1416 -42.8358 236° Southwest  Level Estimated
12:49PM 58.0762 -43.0183 236° Southwest  Level Estimated
12:50PM 58.0106 -43.2001 236° Southwest  Level Estimated
12:51PM 57.9447 -43.3813 236° Southwest  Level Estimated
12:52PM 57.8785 -43.5618 235° Southwest  Level Estimated
12:53PM 57.8121 -43.7416 235° Southwest  Level Estimated
12:54PM 57.7455 -43.9207 235° Southwest  Level Estimated
12:55PM 57.6786 -44.0992 235° Southwest  Level Estimated
12:56PM 57.6114 -44.2771 235° Southwest  Level Estimated
12:57PM 57.5440 -44.4543 235° Southwest  Level Estimated
12:58PM 57.4763 -44.6308 235° Southwest  Level Estimated
12:59PM 57.4084 -44.8066 234° Southwest  Level Estimated
01:00PM 57.3403 -44.9819 234° Southwest  Level Estimated
01:01PM 57.2719 -45.1564 234° Southwest  Level Estimated
01:02PM 57.2033 -45.3303 234° Southwest  Level Estimated
01:03PM 57.1344 -45.5036 234° Southwest  Level Estimated
01:04PM 57.0653 -45.6763 234° Southwest  Level Estimated
01:05PM 56.9959 -45.8482 234° Southwest  Level Estimated
01:06PM 56.9263 -46.0196 233° Southwest  Level Estimated
01:07PM 56.8565 -46.1903 233° Southwest  Level Estimated
01:08PM 56.7865 -46.3604 233° Southwest  Level Estimated
01:09PM 56.7162 -46.5298 233° Southwest  Level Estimated
01:10PM 56.6457 -46.6986 233° Southwest  Level Estimated
01:11PM 56.5750 -46.8668 233° Southwest  Level Estimated
01:12PM 56.5040 -47.0343 233° Southwest  Level Estimated
01:13PM 56.4328 -47.2012 232° Southwest  Level Estimated
01:14PM 56.3614 -47.3675 232° Southwest  Level Estimated
01:15PM 56.2898 -47.5332 232° Southwest  Level Estimated
01:16PM 56.2170 -47.7003 232° Southwest  Level Estimated
01:17PM 56.1440 -47.8669 232° Southwest  Level Estimated
01:18PM 56.0707 -48.0330 232° Southwest  Level Estimated
01:19PM 55.9972 -48.1984 232° Southwest  Level Estimated
01:20PM 55.9235 -48.3631 231° Southwest  Level Estimated
01:21PM 55.8495 -48.5272 231° Southwest  Level Estimated
01:22PM 55.7754 -48.6908 231° Southwest  Level Estimated
01:22PM 59.3500 -57.0333 230° Southwest 440 506 37,000  Level Gander Center
01:23PM 55.7010 -48.8537 231° Southwest  Level Estimated
01:23PM 59.2500 -57.2167 223° Southwest 440 506 37,000  Level Gander Center
01:24PM 55.6264 -49.0159 231° Southwest  Level Estimated
01:24PM 59.1833 -57.4167 237° Southwest 440 506 37,000  Level Gander Center
01:25PM 55.5516 -49.1776 231° Southwest  Level Estimated
01:25PM 59.1000 -57.5833 226° Southwest 450 518 37,000  Level Gander Center
01:26PM 55.4766 -49.3386 231° Southwest  Level Estimated
01:26PM 59.0167 -57.7500 226° Southwest 440 506 37,000  Level Gander Center
01:27PM 55.4014 -49.4990 230° Southwest  Level Estimated
01:27PM 58.9167 -57.8667 211° Southwest 440 506 37,000  Level Gander Center
01:27PM 58.8667 -57.9333 215° Southwest 440 506 37,000  Level Gander Center
01:28PM 55.3259 -49.6589 230° Southwest  Level Estimated
01:28PM 58.7500 -58.0667 211° Southwest 440 506 37,000  Level Gander Center
01:29PM 58.6667 -58.1667 212° Southwest 440 506 37,000  Level Gander Center
01:30PM 58.5500 -58.2833 208° Southwest 440 506 37,000 -300 Level Gander Center
01:31PM 58.4500 -58.4167 215° Southwest 440 506 36,500 -540 Descending Gander Center
01:32PM 58.3333 -58.5167 204° Southwest 440 506 36,000 -300 Descending Gander Center
01:33PM 58.2500 -58.6500 220° Southwest 440 506 36,000  Level Gander Center
01:34PM 58.1333 -58.7500 204° Southwest 440 506 36,000  Level Gander Center
01:35PM 58.0333 -58.8833 215° Southwest 440 506 36,000  Level Gander Center
01:36PM 57.9167 -58.9833 204° Southwest 440 506 36,000  Level Gander Center
01:37PM 57.8167 -59.1167 215° Southwest 440 506 36,000  Level Gander Center
01:38PM 57.7000 -59.2167 205° Southwest 440 506 36,000  Level Gander Center
01:39PM 57.6000 -59.3500 216° Southwest 440 506 36,000  Level Gander Center
01:40PM 57.5000 -59.4500 208° Southwest 430 495 36,000  Level Gander Center
01:41PM 57.4000 -59.5833 216° Southwest 430 495 36,000  Level Gander Center
01:42PM 57.3000 -59.6833 208° Southwest 430 495 36,000  Level Gander Center
01:43PM 57.1833 -59.7667 201° Southwest 430 495 36,000  Level Gander Center
01:44PM 57.0833 -59.9000 216° Southwest 430 495 36,000  Level Gander Center
01:45PM 56.9833 -60.0000 209° Southwest 430 495 36,000  Level Gander Center
01:46PM 56.8667 -60.1167 209° Southwest 410 472 36,000  Level Gander Center
01:47PM 56.7500 -60.2500 212° Southwest 430 495 36,000  Level Gander Center
01:48PM 56.6500 -60.3333 205° Southwest 440 506 36,000  Level Gander Center
01:49PM 56.5500 -60.4333 209° Southwest 430 495 36,000  Level Gander Center
01:50PM 56.4333 -60.5500 209° Southwest 430 495 36,000  Level Gander Center
01:51PM 56.3333 -60.6500 209° Southwest 430 495 36,000  Level Gander Center
01:52PM 56.2333 -60.7667 213° Southwest 430 495 36,000  Level Gander Center
01:53PM 56.1333 -60.8667 209° Southwest 430 495 36,000  Level Gander Center
01:54PM 56.0167 -60.9500 202° Southwest 430 495 36,000  Level Gander Center
01:55PM 55.9167 -61.0667 213° Southwest 430 495 36,000  Level Gander Center
01:56PM 55.8167 -61.1667 209° Southwest 430 495 36,000  Level Gander Center
01:57PM 55.7000 -61.2833 209° Southwest 430 495 36,000  Level Gander Center
01:58PM 55.6000 -61.3667 205° Southwest 430 495 36,000  Level Gander Center
01:59PM 55.4833 -61.4667 206° Southwest 430 495 36,000  Level Gander Center
02:00PM 55.3833 -61.5833 214° Southwest 430 495 36,000  Level Gander Center
02:01PM 55.2833 -61.6667 205° Southwest 420 483 36,000  Level Gander Center
02:02PM 55.1833 -61.7833 214° Southwest 430 495 36,000  Level Gander Center
02:03PM 55.0667 -61.8667 202° Southwest 420 483 36,000  Level Gander Center
02:04PM 54.9667 -61.9500 206° Southwest 420 483 36,000  Level Gander Center
02:05PM 54.8667 -62.0333 206° Southwest 430 495 36,000  Level Gander Center
02:06PM 54.7667 -62.1500 214° Southwest 420 483 36,000  Level Gander Center
02:07PM 54.6667 -62.2333 206° Southwest 420 483 36,000  Level Gander Center
02:08PM 54.5500 -62.3500 210° Southwest 430 495 36,000  Level Gander Center
02:09PM 54.4500 -62.4333 206° Southwest 430 495 36,000  Level Gander Center
02:10PM 54.3500 -62.5167 206° Southwest 430 495 36,000  Level Gander Center
02:11PM 54.2333 -62.6333 210° Southwest 430 495 36,000  Level Gander Center
02:12PM 54.1167 -62.7000 199° South 420 483 36,000  Level Gander Center
02:13PM 54.0167 -62.7833 206° Southwest 430 495 36,000  Level Gander Center
02:15PM 53.8667 -62.9333 211° Southwest 430 495 36,000  Level Gander Center
02:16PM 53.7500 -63.0333 207° Southwest 430 495 36,000  Level Gander Center
02:17PM 53.6500 -63.1167 206° Southwest 420 483 36,000  Level Gander Center
02:18PM 53.5500 -63.2167 211° Southwest 430 495 36,000  Level Gander Center
02:19PM 53.4500 -63.3000 206° Southwest 420 483 36,000  Level Gander Center
02:20PM 53.3333 -63.3833 203° Southwest 430 495 36,000  Level Gander Center
02:21PM 53.2333 -63.4833 211° Southwest 430 495 36,000  Level Gander Center
02:22PM 53.1000 -63.5667 201° Southwest 420 483 36,000  Level Gander Center
02:23PM 53.0000 -63.6500 207° Southwest 430 495 36,000  Level Gander Center
02:24PM 52.9000 -63.7500 211° Southwest 430 495 36,000  Level Gander Center
02:25PM 52.8000 -63.8333 207° Southwest 430 495 36,000  Level Gander Center
02:26PM 52.7000 -63.9000 202° Southwest 430 495 36,000  Level Gander Center
02:27PM 52.5833 -64.0000 208° Southwest 430 495 36,000  Level Gander Center
02:28PM 52.4833 -64.0833 207° Southwest 430 495 36,000  Level Gander Center
02:29PM 52.3500 -64.1833 205° Southwest 430 495 36,000  Level Gander Center
02:30PM 52.3000 -64.2333 211° Southwest 430 495 36,000  Level Moncton Center
02:31PM 52.1833 -64.3167 204° Southwest 430 495 36,000  Level Moncton Center
02:32PM 52.0833 -64.4000 207° Southwest 430 495 36,000  Level Moncton Center
02:33PM 51.9667 -64.4833 204° Southwest 430 495 36,000  Level Moncton Center
02:34PM 51.8667 -64.5667 207° Southwest 430 495 36,000  Level Moncton Center
02:35PM 51.7500 -64.6667 208° Southwest 430 495 36,000  Level Moncton Center
02:36PM 51.6500 -64.7167 197° South 430 495 36,000  Level Moncton Center
02:37PM 51.5333 -64.8333 212° Southwest 430 495 36,000  Level Moncton Center
02:38PM 51.4333 -64.9000 203° Southwest 430 495 36,000  Level Moncton Center
02:39PM 51.3333 -64.9833 208° Southwest 430 495 36,000  Level Moncton Center
02:40PM 51.2167 -65.0667 204° Southwest 430 495 36,000  Level Moncton Center
02:41PM 51.1167 -65.1500 208° Southwest 430 495 36,000  Level Moncton Center
02:42PM 51.0000 -65.2167 200° South 430 495 36,000  Level Moncton Center
02:43PM 50.9000 -65.3000 208° Southwest 430 495 36,000  Level Moncton Center
02:44PM 50.7833 -65.4000 208° Southwest 430 495 36,000  Level Moncton Center
02:45PM 50.6667 -65.4833 204° Southwest 430 495 36,000  Level Moncton Center
02:46PM 50.5500 -65.5500 200° South 440 506 36,000  Level Moncton Center
02:47PM 50.4500 -65.6333 208° Southwest 440 506 36,000  Level Moncton Center
02:48PM 50.3333 -65.7167 205° Southwest 440 506 36,000  Level Moncton Center
02:49PM 50.2167 -65.7833 200° South 440 506 36,000  Level Moncton Center
02:50PM 50.1167 -65.8667 208° Southwest 440 506 36,000  Level Moncton Center
02:51PM 50.0000 -65.9667 209° Southwest 440 506 36,000  Level Moncton Center
02:52PM 49.9000 -66.0333 203° Southwest 440 506 36,000  Level Moncton Center
02:53PM 49.7833 -66.1000 200° South 440 506 36,000  Level Moncton Center
02:54PM 49.6833 -66.1833 208° Southwest 430 495 36,000  Level Moncton Center
02:55PM 49.5667 -66.2500 200° South 430 495 36,000  Level Moncton Center
02:56PM 49.4667 -66.3333 208° Southwest 430 495 36,000  Level Moncton Center
02:57PM 49.3333 -66.4000 198° South 430 495 36,000  Level Moncton Center
02:58PM 49.2333 -66.4667 204° Southwest 430 495 36,000  Level Moncton Center
02:59PM 49.1167 -66.5667 209° Southwest 430 495 36,000  Level Moncton Center
03:00PM 49.0167 -66.6500 209° Southwest 430 495 36,000  Level Moncton Center
03:01PM 48.9000 -66.7167 201° Southwest 430 495 36,000  Level Moncton Center
03:02PM 48.8000 -66.7833 204° Southwest 430 495 36,000  Level Moncton Center
03:03PM 48.6833 -66.8500 201° Southwest 440 506 36,000  Level Moncton Center
03:04PM 48.5667 -66.9333 205° Southwest 440 506 36,000  Level Moncton Center
03:05PM 48.4500 -67.0167 205° Southwest 440 506 36,000  Level Moncton Center
03:06PM 48.3333 -67.1000 205° Southwest 440 506 36,000  Level Moncton Center
03:07PM 48.2333 -67.1667 204° Southwest 440 506 36,000  Level Moncton Center
03:08PM 48.1167 -67.2333 201° Southwest 440 506 36,000  Level Moncton Center
03:13PM 47.4975 -67.6423 203° Southwest 441 507 36,000  Level FlightAware ADS-B (CYSG)
03:14PM 47.4555 -67.6689 203° Southwest 445 512 36,000  Level FlightAware ADS-B (CYSG)
03:14PM 47.3653 -67.7260 203° Southwest 447 514 36,000  Level FlightAware ADS-B (CYSG)
03:15PM 47.2775 -67.7812 203° Southwest 450 518 36,000  Level FlightAware ADS-B (CYSG)
03:16PM 47.1548 -67.8583 203° Southwest 449 517 36,000  Level FlightAware ADS-B (CYSG)
03:17PM 47.0572 -67.9190 203° Southwest 446 513 36,000  Level FlightAware ADS-B (CYSG)
03:18PM 47.0011 -67.9541 203° Southwest 445 512 36,000  Level FlightAware ADS-B (CYSG)
03:18PM 46.9454 -67.9888 203° Southwest 447 514 36,000  Level FlightAware ADS-B (CYSG)
03:19PM 46.8334 -68.0582 203° Southwest 448 516 36,000  Level FlightAware ADS-B (CYSG)
03:20PM 46.7585 -68.1002 197° South 452 520 36,000  Level FlightAware ADS-B (CYSG)
03:20PM 46.6963 -68.1255 196° South 451 519 36,000  Level FlightAware ADS-B (CYSG)
03:21PM 46.6427 -68.1487 197° South 452 520 36,000  Level FlightAware ADS-B (CYSG)
03:22PM 46.5436 -68.1907 196° South 454 522 36,000  Level FlightAware ADS-B (CYSG)
03:22PM 46.4745 -68.2193 196° South 453 521 36,000  Level FlightAware ADS-B (CYSG)
03:23PM 46.4470 -68.2307 196° South 455 524 36,000  Level FlightAware ADS-B (CYSG)
03:23PM 46.3517 -68.2701 196° South 456 525 36,000  Level FlightAware ADS-B (CYSG)
03:24PM 46.2919 -68.2946 196° South 458 527 36,000  Level FlightAware ADS-B (CYSG)
03:24PM 46.2024 -68.3313 196° South 458 527 36,000  Level FlightAware ADS-B (CYSG)
03:25PM 46.1410 -68.3564 196° South 459 528 36,000  Level FlightAware ADS-B (CYSG)
03:25PM 46.0589 -68.3900 196° South 462 532 36,000  Level FlightAware ADS-B (CYSG)
03:26PM 45.9828 -68.4208 196° South 460 529 36,000  Level FlightAware ADS-B (CYSG)
03:27PM 45.9179 -68.4471 196° South 458 527 36,000  Level FlightAware ADS-B (CYSG)
03:27PM 45.8520 -68.4736 196° South 456 525 36,000  Level FlightAware ADS-B (KBGR)
03:28PM 45.7768 -68.5042 196° South 457 526 36,000  Level FlightAware ADS-B (CYSG)
03:28PM 45.7176 -68.5278 196° South 458 527 36,000  Level FlightAware ADS-B (CYSG)
03:29PM 45.6523 -68.5539 196° South 459 528 36,000  Level FlightAware ADS-B (CYSG)
03:29PM 45.5905 -68.5787 196° South 459 528 36,000  Level FlightAware ADS-B (CYSG)
03:30PM 45.5218 -68.6062 196° South 458 527 36,000  Level FlightAware ADS-B (KBGR)
03:31PM 45.4454 -68.6366 196° South 456 525 36,000  Level FlightAware ADS-B (CYSG)
03:31PM 45.3853 -68.6606 196° South 455 524 36,000  Level FlightAware ADS-B (CYSG)
03:32PM 45.3156 -68.6883 196° South 452 520 36,000  Level FlightAware ADS-B (KBGR)
03:32PM 45.2449 -68.7161 196° South 452 520 36,000  Level FlightAware ADS-B (CYSG)
03:33PM 45.1819 -68.7409 196° South 452 520 36,000  Level FlightAware ADS-B (CYSG)
03:33PM 45.1217 -68.7647 196° South 450 518 36,000  Level FlightAware ADS-B (CYSG)
03:34PM 45.0589 -68.7894 196° South 448 516 36,000  Level FlightAware ADS-B (KBGR)
03:34PM 44.9912 -68.8158 195° South 444 511 36,000  Level FlightAware ADS-B (KBGR)
03:35PM 44.9193 -68.8439 196° South 442 509 36,000  Level FlightAware ADS-B (CYSG)
03:35PM 44.8785 -68.8599 197° South 442 509 36,000  Level FlightAware ADS-B (KBGR)
03:35PM 44.8462 -68.8746 199° South 442 509 36,000  Level FlightAware ADS-B
03:36PM 44.7954 -68.9044 205° Southwest 438 504 36,000  Level FlightAware ADS-B (CYSG)
03:37PM 44.7280 -68.9511 207° Southwest 437 503 36,000  Level FlightAware ADS-B (KBGR)
03:37PM 44.6740 -68.9885 206° Southwest 437 503 36,000  Level FlightAware ADS-B (KBGR)
03:38PM 44.6074 -69.0341 206° Southwest 437 503 36,000  Level FlightAware ADS-B (CYSG)
03:38PM 44.5510 -69.0724 206° Southwest 436 502 36,000  Level FlightAware ADS-B (CYSG)
03:39PM 44.4943 -69.1109 206° Southwest 433 498 36,000  Level FlightAware ADS-B (KBGR)
03:39PM 44.4218 -69.1598 206° Southwest 432 497 36,000  Level FlightAware ADS-B (CYSG)
03:40PM 44.3654 -69.1977 206° Southwest 432 497 36,000  Level FlightAware ADS-B (KBGR)
03:40PM 44.3090 -69.2357 206° Southwest 433 498 36,000  Level FlightAware ADS-B (CYSG)
03:41PM 44.2474 -69.2770 206° Southwest 433 498 36,000  Level FlightAware ADS-B (KASH)
03:42PM 44.1891 -69.3160 206° Southwest 436 502 36,000  Level FlightAware ADS-B (KBGR)
03:42PM 44.1150 -69.3655 206° Southwest 443 510 36,000  Level FlightAware ADS-B (KASH)
03:43PM 44.0524 -69.4072 206° Southwest 442 509 36,000  Level FlightAware ADS-B (KASH)
03:43PM 43.9957 -69.4448 206° Southwest 432 497 36,000  Level FlightAware ADS-B (KASH)
03:44PM 43.9171 -69.4969 206° Southwest 434 499 36,000  Level FlightAware ADS-B (KASH)
03:45PM 43.8280 -69.5558 206° Southwest 448 516 36,000  Level FlightAware ADS-B (KASH)
03:46PM 43.7437 -69.6115 206° Southwest 450 518 36,000  Level FlightAware ADS-B (KASH)
03:46PM 43.6760 -69.6559 205° Southwest 450 518 36,000  Level FlightAware ADS-B (KBOS)
03:47PM 43.6098 -69.6992 206° Southwest 451 519 36,000  Level FlightAware ADS-B (KBOS)
03:47PM 43.5464 -69.7406 205° Southwest 449 517 36,000  Level FlightAware ADS-B (KASH)
03:48PM 43.4819 -69.7826 205° Southwest 449 517 36,000  Level FlightAware ADS-B (KBOS)
03:48PM 43.4448 -69.8036 197° South 456 525 36,000  Level FlightAware ADS-B (KBOS)
03:49PM 43.3433 -69.8405 191° South 464 534 36,000  Level FlightAware ADS-B (KBOS)
03:50PM 43.2800 -69.8524 186° South 469 540 36,000  Level FlightAware ADS-B (KBOS)
03:50PM 43.2142 -69.8635 188° South 466 536 36,000  Level FlightAware ADS-B (KBOS)
03:51PM 43.1480 -69.8747 187° South 467 537 36,000  Level FlightAware ADS-B (KBOS)
03:51PM 43.0494 -69.8896 186° South 469 540 36,000  Level FlightAware ADS-B (KASH)
03:52PM 42.9677 -69.9014 186° South 468 539 36,000  Level FlightAware ADS-B (KBOS)
03:52PM 42.9001 -69.9112 186° South 466 536 36,000  Level FlightAware ADS-B (KBOS)
03:53PM 42.8371 -69.9202 186° South 465 535 36,000  Level FlightAware ADS-B (KBOS)
03:54PM 42.7703 -69.9299 186° South 468 539 36,000  Level FlightAware ADS-B (KBOS)
03:54PM 42.7027 -69.9397 186° South 470 541 36,000  Level FlightAware ADS-B (KBOS)
03:55PM 42.6376 -69.9490 186° South 472 543 36,000  Level FlightAware ADS-B (KBOS)
03:55PM 42.5680 -69.9591 186° South 473 544 36,000  Level FlightAware ADS-B (KASH)
03:56PM 42.5042 -69.9682 186° South 473 544 36,000  Level FlightAware ADS-B (KASH)
03:56PM 42.4366 -69.9779 186° South 471 542 36,000  Level FlightAware ADS-B (KASH)
03:57PM 42.3711 -69.9872 186° South 471 542 36,000  Level FlightAware ADS-B (KASH)
03:57PM 42.2997 -69.9974 186° South 471 542 36,000  Level FlightAware ADS-B (KBOS)
03:58PM 42.2359 -70.0066 187° South 469 540 36,000  Level FlightAware ADS-B (KBOS)
03:58PM 42.2437 -70.0054 187° South 470 541 36,000  Level FlightAware ADS-B
03:58PM 42.1475 -70.0299 195° South 459 528 36,000  Level FlightAware ADS-B (KBOS)
03:59PM 42.0880 -70.0567 201° Southwest 451 519 36,000  Level FlightAware ADS-B (KBOS)
03:59PM 42.0266 -70.0948 208° Southwest 439 505 36,000  Level FlightAware ADS-B (KASH)
03:59PM 42.0128 -70.1050 209° Southwest 445 512 36,000  Level FlightAware ADS-B (KBOS)
04:00PM 42.0102 -70.1070 209° Southwest 445 512 36,000  Level FlightAware ADS-B
04:00PM 41.9766 -70.1347 216° Southwest 439 505 36,000  Level FlightAware ADS-B
04:00PM 41.9348 -70.1754 219° Southwest 434 499 36,000  Level FlightAware ADS-B (KASH)
04:01PM 41.9026 -70.2122 220° Southwest 433 498 36,000  Level FlightAware ADS-B (KOWD)
04:01PM 41.8839 -70.2361 224° Southwest 431 496 36,000  Level FlightAware ADS-B (KASH)
04:02PM 41.8172 -70.3323 227° Southwest 432 497 36,000  Level FlightAware ADS-B (ZSSL)
04:02PM 41.7844 -70.3794 227° Southwest 432 497 36,000  Level FlightAware ADS-B (KBOS)
04:03PM 41.7379 -70.4468 227° Southwest 433 498 36,000  Level FlightAware ADS-B
04:03PM 41.6898 -70.5165 227° Southwest 434 499 36,000  Level FlightAware ADS-B (KOWD)
04:04PM 41.6458 -70.5802 227° Southwest 432 497 36,000  Level FlightAware ADS-B (KASH)
04:04PM 41.5944 -70.6545 227° Southwest 432 497 36,000  Level FlightAware ADS-B (KOWD)
04:05PM 41.5536 -70.7132 227° Southwest 432 497 36,000  Level FlightAware ADS-B (KOWD)
04:06PM 41.4556 -70.8543 227° Southwest 435 501 36,000  Level FlightAware ADS-B (ZSSL)
04:07PM 41.4113 -70.9178 228° Southwest 430 495 36,000  Level FlightAware ADS-B (KASH)
04:07PM 41.3704 -70.9763 228° Southwest 429 494 36,000  Level FlightAware ADS-B (KASH)
04:08PM 41.3287 -71.0358 228° Southwest 428 493 36,000  Level FlightAware ADS-B (KASH)
04:08PM 41.3069 -71.0677 230° Southwest 427 491 36,000  Level FlightAware ADS-B
04:08PM 41.2726 -71.1269 236° Southwest 429 494 36,000  Level FlightAware ADS-B (KASH)
04:09PM 41.2314 -71.2247 245° Southwest 427 491 36,000  Level FlightAware ADS-B (ZSSL)
04:09PM 41.2184 -71.2664 249° West 425 489 36,000  Level FlightAware ADS-B
04:10PM 41.1984 -71.3398 250° West 427 491 36,000  Level FlightAware ADS-B (KASH)
04:10PM 41.1777 -71.4136 249° West 427 491 36,000  Level FlightAware ADS-B
04:11PM 41.1535 -71.4990 249° West 426 490 36,000  Level FlightAware ADS-B
04:11PM 41.1332 -71.5708 250° West 425 489 36,000  Level FlightAware ADS-B
04:12PM 41.1040 -71.6740 249° West 425 489 36,000  Level FlightAware ADS-B
04:13PM 41.0595 -71.7950 232° Southwest 444 511 36,000  Level FlightAware ADS-B
04:14PM 41.0020 -71.8699 224° Southwest 453 521 36,000  Level FlightAware ADS-B
04:14PM 40.9562 -71.9287 224° Southwest 453 521 36,000  Level FlightAware ADS-B
04:15PM 40.8852 -72.0196 224° Southwest 454 522 36,000  Level FlightAware ADS-B
04:18PM 40.6257 -72.3513 225° Southwest 438 504 36,000  Level FlightAware ADS-B
04:18PM 40.5944 -72.3908 225° Southwest 443 510 36,000  Level Washington Center
04:19PM 40.5206 -72.4864 225° Southwest 435 501 36,000  Level Boston Center
04:20PM 40.4350 -72.5956 224° Southwest 432 497 36,000  Level Boston Center
04:21PM 40.3489 -72.7053 224° Southwest 431 496 36,000  Level Boston Center
04:22PM 40.2589 -72.8164 223° Southwest 440 506 36,000  Level Boston Center
04:23PM 40.1578 -72.9458 224° Southwest 441 507 36,000  Level Boston Center
04:24PM 40.0683 -73.0550 223° Southwest 440 506 36,000  Level Boston Center
04:25PM 39.9803 -73.1664 224° Southwest 441 507 36,000  Level Boston Center
04:26PM 39.8919 -73.2772 224° Southwest 440 506 36,000  Level Boston Center
04:32PM 39.3830 -73.8565 214° Southwest 458 527 36,000  Level FlightAware ADS-B (KPHL)
04:33PM 39.2820 -73.9436 214° Southwest 458 527 36,000  Level FlightAware ADS-B (KPHL)
04:33PM 39.2253 -73.9926 214° Southwest 460 529 36,000  Level FlightAware ADS-B (KPHL)
04:34PM 39.1456 -74.0612 214° Southwest 461 531 36,000  Level FlightAware ADS-B (KPHL)
04:35PM 39.0691 -74.1268 214° Southwest 462 532 36,000  Level FlightAware ADS-B (KPHL)
04:35PM 38.9930 -74.1920 214° Southwest 462 532 36,000  Level FlightAware ADS-B (KPHL)
04:40PM 38.6419 -74.4902 214° Southwest 451 519 36,000  Level FlightAware ADS-B
04:40PM 38.5208 -74.5936 214° Southwest 453 521 36,000  Level Washington Center
04:41PM 38.4167 -74.6781 212° Southwest 447 514 36,000  Level Washington Center
04:42PM 38.2908 -74.7836 213° Southwest 449 517 36,000  Level Washington Center
04:43PM 38.1967 -74.8625 213° Southwest 450 518 36,000  Level Washington Center
04:44PM 38.0900 -74.9500 213° Southwest 453 521 36,000  Level Washington Center
04:45PM 37.9619 -75.0544 213° Southwest 455 524 36,000  Level Washington Center
04:46PM 37.8558 -75.1428 213° Southwest 456 525 36,000  Level Washington Center
04:47PM 37.7483 -75.2306 213° Southwest 458 527 36,000  Level Washington Center
04:48PM 37.6411 -75.3189 213° Southwest 459 528 36,000  Level Washington Center
04:49PM 37.5333 -75.4064 213° Southwest 460 529 36,000  Level Washington Center
04:51PM 37.4044 -75.5128 213° Southwest 461 531 36,000  Level Washington Center
04:52PM 37.2964 -75.6008 213° Southwest 462 532 36,000  Level Washington Center
04:53PM 37.1875 -75.6886 213° Southwest 463 533 36,000  Level Washington Center
04:54PM 37.0786 -75.7767 213° Southwest 464 534 36,000  Level Washington Center
04:55PM 36.9642 -75.8672 212° Southwest 465 535 36,000  Level Washington Center
04:56PM 36.8553 -75.9533 212° Southwest 465 535 36,000  Level Washington Center
04:57PM 36.7444 -76.0414 212° Southwest 467 537 36,000  Level Washington Center
04:58PM 36.6253 -76.1369 213° Southwest 477 549 36,000  Level Washington Center
04:59PM 36.5150 -76.2231 212° Southwest 470 541 36,000  Level Washington Center
05:00PM 36.3806 -76.3303 213° Southwest 473 544 36,000  Level Washington Center
05:01PM 36.2689 -76.4153 212° Southwest 474 545 36,000  Level Washington Center
05:02PM 36.1578 -76.5017 212° Southwest 473 544 36,000  Level Washington Center
05:03PM 36.0456 -76.5894 212° Southwest 474 545 36,000  Level Washington Center
05:04PM 35.9333 -76.6789 213° Southwest 476 548 36,000  Level Washington Center
05:05PM 35.7986 -76.7822 212° Southwest 476 548 36,000  Level Washington Center
05:06PM 35.6861 -76.8692 212° Southwest 476 548 36,000  Level Washington Center
05:07PM 35.5725 -76.9528 211° Southwest 476 548 36,000  Level Washington Center
05:08PM 35.4603 -77.0394 212° Southwest 476 548 36,000  Level Washington Center
05:09PM 35.3475 -77.1264 212° Southwest 476 548 36,000  Level Washington Center
05:10PM 35.2275 -77.1981 206° Southwest 478 550 36,000  Level Washington Center
05:11PM 35.0722 -77.2600 198° South 486 559 36,000  Level Washington Center
05:12PM 34.9419 -77.3103 198° South 487 560 36,000  Level Washington Center
05:13PM 34.8114 -77.3628 198° South 487 560 36,000  Level Washington Center
05:14PM 34.6808 -77.4131 198° South 490 564 36,000  Level Washington Center
05:15PM 34.5511 -77.4636 198° South 490 564 36,000  Level Washington Center
05:16PM 34.4214 -77.5192 199° South 491 565 36,000  Level Washington Center
05:17PM 34.3064 -77.6022 211° Southwest 482 555 36,000  Level Washington Center
05:18PM 34.1667 -77.7047 211° Southwest 485 558 36,000  Level Washington Center
05:19PM 34.0528 -77.7878 211° Southwest 485 558 36,000  Level Washington Center
05:21PM 33.9319 -77.8650 208° Southwest 487 560 36,000  Level Washington Center
05:22PM 33.7833 -77.9139 195° South 509 586 36,000  Level Washington Center
05:24PM 33.4544 -78.0233 196° South 502 578 36,000  Level Jacksonville Center
05:25PM 33.3836 -78.0489 197° South 495 570 36,000  Level Washington Center
05:26PM 33.1947 -78.1072 194° South 487 560 36,000  Level Jacksonville Center
05:27PM 33.0669 -78.1486 195° South 482 555 36,000  Level Jacksonville Center
05:28PM 32.9411 -78.1900 195° South 477 549 36,000  Level Jacksonville Center
05:29PM 32.8156 -78.2336 196° South 472 543 36,000  Level Jacksonville Center
05:30PM 32.6894 -78.2697 194° South 472 543 36,000  Level Jacksonville Center
05:31PM 32.5658 -78.3106 196° South 472 543 36,000  Level Jacksonville Center
05:38PM 31.7303 -78.5889 197° South 451 519 36,000  Level Jacksonville Center
05:40PM 31.6205 -78.5516 197° South  Level FlightAware Approximate
05:40PM 31.4844 -78.6636 195° South 451 519 36,000  Level Jacksonville Center
05:41PM 31.5124 -78.5909 197° South  Level FlightAware Approximate
05:41PM 31.3625 -78.7056 196° South 451 519 36,600  Level Jacksonville Center
05:42PM 31.4043 -78.6300 197° South  Level FlightAware Approximate
05:43PM 31.2962 -78.6691 197° South  Level FlightAware Approximate
05:43PM 31.1233 -78.7989 198° South 451 519 38,000  Level Jacksonville Center
05:44PM 31.0078 -78.8403 197° South 451 519 38,000  Level Jacksonville Center
05:46PM 30.8072 -78.9194 199° South 452 520 38,000  Level Miami Center
05:47PM 30.6900 -78.9606 197° South 428 493 38,000  Level Miami Center
05:48PM 30.5769 -79.0042 198° South 430 495 38,000  Level Miami Center
05:49PM 30.4594 -79.0475 198° South 437 503 38,000  Level Miami Center
05:53PM 29.9897 -79.2175 198° South 440 506 38,000  Level Miami Center
05:54PM 29.8806 -79.2700 203° Southwest 445 512 38,000  Level Miami Center
05:55PM 29.7650 -79.3153 199° South 445 512 38,000  Level Miami Center
05:56PM 29.6497 -79.3558 197° South 440 506 38,000  Level Miami Center
05:57PM 29.5342 -79.3983 198° South 440 506 38,000  Level Miami Center
05:58PM 29.5030 -79.4008 198° South  Level FlightAware Approximate
05:58PM 29.4167 -79.4361 196° South 439 505 38,000  Level Miami Center
05:59PM 29.3033 -79.4811 199° South 439 505 38,000  Level Miami Center
06:04PM 28.7209 -79.7261 205° Southwest 405 466 38,000  Level FlightAware ADS-B (KMCO)
06:06PM 28.4751 -79.8524 204° Southwest 407 468 38,000  Level FlightAware ADS-B (KMCO)
06:07PM 28.4203 -79.8803 204° Southwest 408 470 38,000  Level FlightAware ADS-B (KMCO)
06:07PM 28.3699 -79.9061 204° Southwest 410 472 38,000  Level FlightAware ADS-B (KMCO)
06:08PM 28.3207 -79.9312 204° Southwest 410 472 38,000  Level FlightAware ADS-B (KMCO)
06:08PM 28.2626 -79.9609 204° Southwest 411 473 38,000  Level FlightAware ADS-B (KMCO)
06:09PM 28.2043 -79.9906 204° Southwest 412 474 38,000  Level FlightAware ADS-B (KMCO)
06:10PM 28.1347 -80.0259 204° Southwest 414 476 38,000  Level FlightAware ADS-B (KMCO)
06:10PM 28.0755 -80.0560 204° Southwest 414 476 38,000  Level FlightAware ADS-B (KMCO)
06:11PM 27.9855 -80.1017 204° Southwest 415 478 38,000  Level FlightAware ADS-B (KMCO)
06:11PM 27.9316 -80.1290 204° Southwest 415 478 38,000  Level FlightAware ADS-B (KMCO)
06:12PM 27.8746 -80.1578 204° Southwest 416 479 38,000  Level FlightAware ADS-B (KMCO)
06:13PM 27.8021 -80.1944 204° Southwest 418 481 38,000  Level FlightAware ADS-B (KMCO)
06:13PM 27.7335 -80.2291 204° Southwest 420 483 38,000  Level FlightAware ADS-B (KMCO)
06:14PM 27.6854 -80.2534 204° Southwest 421 484 38,000  Level FlightAware ADS-B (KMCO)
06:14PM 27.6254 -80.2836 204° Southwest 420 483 38,000  Level FlightAware ADS-B (KMCO)
06:15PM 27.5799 -80.3064 204° Southwest 421 484 38,000  Level FlightAware ADS-B (KMCO)
06:15PM 27.5204 -80.3363 204° Southwest 421 484 38,000  Level FlightAware ADS-B (RJTF)
06:16PM 27.4148 -80.3892 204° Southwest 422 486 38,000  Level FlightAware ADS-B (RJTF)
06:17PM 27.4032 -80.3950 204° Southwest 423 487 38,000  Level FlightAware ADS-B (RJTF)
06:17PM 27.3227 -80.4353 204° Southwest 424 488 38,000  Level FlightAware ADS-B (RJTF)
06:19PM 27.0870 -80.5528 204° Southwest 428 493 38,000  Level FlightAware ADS-B (KMCO)
06:20PM 27.0173 -80.5875 204° Southwest 429 494 38,000  Level FlightAware ADS-B (KMCO)
06:21PM 26.9453 -80.6233 204° Southwest 430 495 38,000  Level FlightAware ADS-B (RJTF)
06:21PM 26.8631 -80.6641 204° Southwest 430 495 38,000  Level FlightAware ADS-B (KMCO)
06:22PM 26.8083 -80.6912 204° Southwest 429 494 38,000  Level FlightAware ADS-B (RJTF)
06:23PM 26.7322 -80.7289 204° Southwest 431 496 38,000  Level FlightAware ADS-B (KMCO)
06:23PM 26.6822 -80.7536 204° Southwest 432 497 38,000  Level FlightAware ADS-B (RJTF)
06:24PM 26.6007 -80.7937 204° Southwest 432 497 38,000  Level FlightAware ADS-B (RJTF)
06:24PM 26.5394 -80.8240 204° Southwest 432 497 38,000  Level FlightAware ADS-B (RJTF)
06:25PM 26.4560 -80.8650 204° Southwest 433 498 38,000  Level FlightAware ADS-B (RJTF)
06:26PM 26.4021 -80.8914 204° Southwest 432 497 38,000  Level FlightAware ADS-B (RJTF)
06:26PM 26.3171 -80.9332 204° Southwest 432 497 38,000  Level FlightAware ADS-B (RJTF)
06:27PM 26.2757 -80.9535 204° Southwest 432 497 38,000  Level FlightAware ADS-B (RJTF)
06:28PM 26.1604 -81.0099 204° Southwest 433 498 38,000  Level FlightAware ADS-B (RJTF)
06:29PM 26.0319 -81.0727 204° Southwest 434 499 38,000  Level FlightAware ADS-B (KMCO)
06:30PM 25.9728 -81.1042 204° Southwest 429 494 38,000  Level Miami Center
06:31PM 25.8625 -81.1581 204° Southwest 434 499 38,000  Level Miami Center
06:32PM 25.7525 -81.2117 204° Southwest 434 499 38,000  Level Miami Center
06:33PM 25.6422 -81.2631 203° Southwest 434 499 38,000 -480 Level Miami Center
06:34PM 25.5319 -81.3189 205° Southwest 429 494 37,100 -960 Descending Miami Center
06:35PM 25.4325 -81.3658 203° Southwest 429 494 36,100 -1,020 Descending Miami Center
06:36PM 25.3200 -81.4214 204° Southwest 434 499 35,100 -960 Descending Miami Center
06:37PM 25.2100 -81.4700 202° Southwest 434 499 34,200 -960 Descending Miami Center
06:38PM 25.1017 -81.5256 205° Southwest 434 499 33,200 -1,020 Descending Miami Center
06:39PM 24.9914 -81.5764 203° Southwest 429 494 32,200 -1,020 Descending Miami Center
06:40PM 24.8875 -81.6250 203° Southwest 424 488 31,200 -1,080 Descending Miami Center
06:41PM 24.7753 -81.6803 204° Southwest 416 479 30,100 -1,080 Descending Miami Center
06:42PM 24.6731 -81.7333 205° Southwest 406 467 29,100 -960 Descending Miami Center
06:43PM 24.5819 -81.7800 205° Southwest 406 467 28,200 -960 Descending Miami Center
06:44PM 24.5000 -81.8589 221° Southwest 413 475 27,200 -1,020 Descending Miami Center
06:45PM 24.4300 -81.9497 230° Southwest 386 444 26,200 -1,020 Descending Miami Center
06:46PM 24.3622 -82.0358 229° Southwest 386 444 25,200 -1,140 Descending Miami Center
06:47PM 24.2967 -82.1172 229° Southwest 376 433 24,000 -1,500 Descending Miami Center
06:48PM 24.2011 -82.1681 206° Southwest 370 426 22,300 -1,020 Descending Miami Center
06:49PM 24.1056 -82.2072 201° Southwest 370 426 22,000 -1,200 Descending Miami Center
06:50PM 24.0061 -82.2461 200° South 376 433 20,000 -2,040 Descending Miami Center
06:52PM 23.7927 -82.2805 191° South  Level Estimated
06:59PM 23.0100 -82.3800 187° South  Level FlightAware Approximate
07:00PM 22.9891 -82.4091 223° Southwest  Level Estimated
07:01PM 22.9891 -82.4091 223° Southwest  Level Estimated
07:02PM 22.9891 -82.4091 223° Southwest  Level Estimated
07:03PM 22.9891 -82.4091 223° Southwest  Level Estimated
07:04PM 22.9891 -82.4091 223° Southwest  Level Estimated
07:05PM 22.9891 -82.4091 223° Southwest  Level Estimated
07:06PM 22.9891 -82.4091 223° Southwest  Level Estimated
07:07PM 22.9891 -82.4091 223° Southwest  Level Estimated
07:08PM 22.9891 -82.4091 223° Southwest  Level Estimated
07:09PM 22.9891 -82.4091 223° Southwest  Level Estimated
07:10PM 22.9891 -82.4091 223° Southwest  Level Estimated
07:11PM 22.9891 -82.4091 223° Southwest  Level Estimated
07:12PM 22.9891 -82.4091 223° Southwest  Level Estimated
07:13PM 22.9891 -82.4091 223° Southwest  Level Estimated
07:14PM 22.9891 -82.4091 223° Southwest  Level Estimated
07:15PM 22.9891 -82.4091 223° Southwest  Level Estimated
07:16PM 22.9891 -82.4091 223° Southwest  Level Estimated
07:17PM 22.9891 -82.4091 223° Southwest  Level Estimated
07:18PM 22.9891 -82.4091 223° Southwest  Level Estimated
07:19PM 22.9891 -82.4091 223° Southwest  Level Estimated
07:20PM 22.9891 -82.4091 223° Southwest  Level Estimated
07:21PM 22.9891 -82.4091 223° Southwest  Level Estimated